Time;durP1;ratioP1;P1;durP2;ratioP2;P2;SDS_P1;SDS_P2;PMS_P1;PMS_P2;Temp;Humidity;BMP_temperature;BMP_pressure;BME280_temperature;BME280_humidity;BME280_pressure;Samples;Min_cycle;Max_cycle;Signal;HPM_P1;HPM_P2
2023/01/05 00:01:57;;;;;;;27.63;16.73;;;;;;;-143.84;81.64;45028.13;5095045;28;20495;-80
2023/01/05 00:04:25;;;;;;;34.73;18.37;;;;;;;-143.84;82.04;45071.91;5095377;28;20534;-79
2023/01/05 00:06:52;;;;;;;23.10;15.60;;;;;;;-143.84;81.92;45050.97;5095456;28;20433;-80
2023/01/05 00:09:20;;;;;;;24.07;16.93;;;;;;;-143.84;82.10;45056.69;5093919;28;20436;-80
2023/01/05 00:22:52;;;;;;;24.47;16.03;;;;;;;-143.84;82.99;45007.19;5096221;28;20413;-79
2023/01/05 00:25:21;;;;;;;28.23;16.27;;;;;;;-143.84;83.02;45022.41;5096614;28;21001;-79
2023/01/05 00:27:51;;;;;;;29.00;15.73;;;;;;;-143.84;82.98;45010.97;5097543;28;20424;-79
2023/01/05 00:30:21;;;;;;;23.07;16.37;;;;;;;-143.84;83.05;44990.03;5096209;28;20479;-79
2023/01/05 00:32:48;;;;;;;29.87;16.20;;;;;;;-143.84;83.49;45014.78;5093193;28;20446;-79
2023/01/05 00:35:16;;;;;;;27.80;18.33;;;;;;;-143.84;83.42;44984.31;5094525;28;20800;-80
2023/01/05 00:37:45;;;;;;;34.10;17.00;;;;;;;-143.84;83.38;44999.56;5095174;28;21031;-80
2023/01/05 00:40:14;;;;;;;36.90;17.60;;;;;;;-143.84;83.86;45001.47;5095224;28;20508;-80
2023/01/05 00:42:41;;;;;;;23.27;16.60;;;;;;;-143.84;83.85;44980.53;5094594;28;20859;-79
2023/01/05 00:45:11;;;;;;;22.47;15.43;;;;;;;-143.84;83.90;44957.66;5094431;28;20531;-80
2023/01/05 00:47:40;;;;;;;25.20;16.23;;;;;;;-143.84;84.08;44934.81;5094752;28;20440;-80
2023/01/05 00:50:09;;;;;;;25.20;17.13;;;;;;;-143.84;84.18;44955.75;5094791;28;20911;-80
2023/01/05 00:52:36;;;;;;;26.30;16.50;;;;;;;-143.84;84.30;44938.63;5094813;28;20436;-79
2023/01/05 00:55:04;;;;;;;26.30;17.80;;;;;;;-143.84;85.00;44894.84;5094550;28;20448;-80
2023/01/05 00:57:31;;;;;;;23.07;16.50;;;;;;;-143.84;84.91;44894.84;5096033;28;20432;-80
2023/01/05 00:59:58;;;;;;;24.80;16.00;;;;;;;-143.84;85.03;44862.47;5094155;28;20448;-80
2023/01/05 01:02:25;;;;;;;22.30;15.90;;;;;;;-143.84;84.63;44870.09;5090283;28;20486;-79
2023/01/05 01:04:54;;;;;;;23.40;15.70;;;;;;;-143.84;85.00;44877.69;5089681;28;20495;-79
2023/01/05 01:07:21;;;;;;;25.30;16.57;;;;;;;-143.84;84.78;44892.94;5088448;28;20855;-79
2023/01/05 01:09:48;;;;;;;22.87;16.07;;;;;;;-143.84;85.52;44826.28;5092107;28;20456;-80
2023/01/05 01:12:15;;;;;;;26.73;17.63;;;;;;;-143.84;84.87;44858.66;5094592;28;20432;-79
2023/01/05 01:14:43;;;;;;;25.63;17.33;;;;;;;-143.84;85.11;44870.09;5095082;28;20461;-79
2023/01/05 01:17:10;;;;;;;24.77;16.63;;;;;;;-143.84;85.36;44820.56;5089518;28;21256;-79
2023/01/05 01:19:38;;;;;;;25.30;17.10;;;;;;;-143.84;85.63;44845.31;5075302;28;20801;-79
2023/01/05 01:22:06;;;;;;;23.90;16.50;;;;;;;-143.84;85.57;44870.09;5073543;28;20478;-79
2023/01/05 01:24:33;;;;;;;20.47;15.00;;;;;;;-143.84;85.17;44835.81;5073979;28;20466;-79
2023/01/05 01:27:01;;;;;;;24.60;15.67;;;;;;;-143.84;85.72;44828.19;5072666;28;20442;-80
2023/01/05 01:29:28;;;;;;;22.77;16.07;;;;;;;-143.84;85.20;44843.44;5073622;28;20438;-81
2023/01/05 01:31:55;;;;;;;24.00;16.30;;;;;;;-143.84;85.37;44812.97;5073874;28;20433;-81
2023/01/05 01:34:23;;;;;;;25.33;15.33;;;;;;;-143.84;85.21;44822.47;5073665;28;20468;-80
2023/01/05 01:36:50;;;;;;;20.97;15.73;;;;;;;-143.84;85.71;44803.44;5074226;28;21011;-79
2023/01/05 01:39:19;;;;;;;27.80;18.97;;;;;;;-143.84;85.21;44805.34;5074593;28;20989;-79
2023/01/05 01:41:46;;;;;;;26.40;16.37;;;;;;;-143.84;85.20;44812.97;5075999;28;20500;-79
2023/01/05 01:45:04;;;;;;;28.47;17.23;;;;;;;-143.84;85.46;44841.53;5075093;28;20474;-79
2023/01/05 01:47:38;;;;;;;33.60;19.10;;;;;;;-143.84;84.63;44898.66;5031935;28;20432;-79
2023/01/05 01:50:11;;;;;;;39.17;19.87;;;;;;;-143.84;84.27;44892.94;5032673;28;20421;-79
2023/01/05 01:52:39;;;;;;;34.57;20.10;;;;;;;-143.84;84.36;44927.19;5054807;28;20443;-79
2023/01/05 01:55:09;;;;;;;42.80;23.60;;;;;;;-143.84;84.59;44883.41;5074388;28;20438;-79
2023/01/05 01:57:37;;;;;;;41.17;24.13;;;;;;;-143.84;84.68;44892.94;5073753;28;20857;-79
2023/01/05 02:00:08;;;;;;;53.10;22.80;;;;;;;-143.84;84.92;44864.38;5072970;28;20441;-79
2023/01/05 02:02:35;;;;;;;40.27;25.63;;;;;;;-143.84;84.86;44835.81;5073336;28;20769;-79
2023/01/05 02:05:05;;;;;;;36.80;22.97;;;;;;;-143.84;84.98;44824.38;5073711;28;20474;-79
2023/01/05 02:07:34;;;;;;;41.03;24.30;;;;;;;-143.84;85.83;44786.31;5073148;28;20435;-79
2023/01/05 02:10:02;;;;;;;41.30;24.87;;;;;;;-143.84;85.56;44807.25;5073378;28;20904;-79
2023/01/05 02:12:43;;;;;;;42.10;26.50;;;;;;;-143.84;85.37;44835.81;5073667;28;20437;-79
2023/01/05 02:15:23;;;;;;;45.10;26.97;;;;;;;-143.84;85.74;44774.88;5075368;28;20507;-79
2023/01/05 02:18:10;;;;;;;53.87;30.70;;;;;;;-143.84;85.63;44792.00;5075910;28;20433;-79
2023/01/05 02:20:57;;;;;;;43.40;28.80;;;;;;;-143.84;86.43;44765.34;5074479;28;20425;-79
2023/01/05 02:23:56;;;;;;;45.27;28.23;;;;;;;-143.84;86.71;44704.44;5072280;28;20449;-79
2023/01/05 02:27:03;;;;;;;39.17;27.23;;;;;;;-143.84;86.69;44685.38;5074613;28;20482;-79
2023/01/05 02:30:05;;;;;;;43.10;24.30;;;;;;;-143.84;86.97;44616.84;5082283;28;20436;-79
2023/01/05 02:32:39;;;;;;;39.73;24.43;;;;;;;-143.84;87.26;44552.13;5094545;28;20453;-79
2023/01/05 02:35:14;;;;;;;41.73;25.07;;;;;;;-143.84;87.71;44515.94;5093833;28;20440;-79
2023/01/05 02:37:46;;;;;;;45.67;25.53;;;;;;;-143.84;88.21;44466.44;5092856;28;20428;-79
2023/01/05 02:40:19;;;;;;;41.07;26.03;;;;;;;-143.84;87.90;44397.91;5092547;28;20490;-79
2023/01/05 02:42:50;;;;;;;42.80;26.27;;;;;;;-143.84;88.36;44327.47;5092255;28;20816;-79
2023/01/05 02:45:17;;;;;;;42.97;26.73;;;;;;;-143.84;88.60;44319.84;5093330;28;20494;-79
2023/01/05 02:47:46;;;;;;;44.30;28.17;;;;;;;-143.84;88.01;44376.97;5092859;28;20424;-79
2023/01/05 02:50:19;;;;;;;42.67;27.10;;;;;;;-143.84;88.50;44367.44;5092348;28;20502;-79
2023/01/05 02:52:55;;;;;;;32.27;23.53;;;;;;;-143.84;87.99;44356.03;5092287;28;20448;-79
2023/01/05 02:55:28;;;;;;;42.90;25.20;;;;;;;-143.84;88.02;44415.03;5092430;28;20914;-79
2023/01/05 02:58:01;;;;;;;48.80;24.67;;;;;;;-143.84;88.56;44327.47;5092222;28;20424;-79
2023/01/05 03:00:33;;;;;;;34.30;23.13;;;;;;;-143.84;88.13;44336.97;5092266;28;20436;-79
2023/01/05 03:03:07;;;;;;;46.47;26.40;;;;;;;-143.84;88.13;44342.69;5092602;28;20501;-79
2023/01/05 03:05:40;;;;;;;45.63;24.97;;;;;;;-143.84;88.01;44276.06;5092429;28;20476;-79
2023/01/05 03:08:20;;;;;;;42.97;23.97;;;;;;;-143.84;88.28;44314.13;5092405;28;20432;-79
2023/01/05 03:13:47;;;;;;;38.83;23.60;;;;;;;-143.84;88.20;44321.75;5092270;28;20407;-79
2023/01/05 03:16:21;;;;;;;39.40;22.73;;;;;;;-143.84;88.16;44338.88;5092475;28;20431;-79
2023/01/05 03:35:34;;;;;;;47.50;26.20;;;;;;;-143.84;89.33;44036.22;5074514;28;20428;-79
2023/01/05 03:38:11;;;;;;;49.77;26.50;;;;;;;-143.84;89.27;43990.53;5073942;28;20519;-79
2023/01/05 03:40:40;;;;;;;45.57;26.00;;;;;;;-143.84;90.02;43992.41;5076341;28;20424;-79
2023/01/05 03:43:08;;;;;;;41.70;24.87;;;;;;;-143.84;89.67;43954.34;5092908;28;20945;-79
2023/01/05 03:45:40;;;;;;;42.90;25.60;;;;;;;-143.84;90.25;43906.75;5097072;28;20468;-79
2023/01/05 03:48:08;;;;;;;47.77;27.87;;;;;;;-143.84;90.62;43849.66;5096880;28;20428;-79
2023/01/05 03:50:36;;;;;;;44.83;28.30;;;;;;;-143.84;90.74;43887.72;5096698;28;20992;-79
2023/01/05 03:53:04;;;;;;;49.37;29.50;;;;;;;-143.84;90.80;43857.28;5097061;28;20437;-79
2023/01/05 03:55:32;;;;;;;57.40;32.87;;;;;;;-143.84;91.41;43830.63;5097063;28;20463;-79
2023/01/05 03:57:59;;;;;;;56.63;32.13;;;;;;;-143.84;91.60;43809.69;5097038;28;20448;-79
2023/01/05 04:00:26;;;;;;;52.53;32.23;;;;;;;-143.84;92.12;43821.09;5096081;28;20427;-79
2023/01/05 04:02:53;;;;;;;48.60;30.13;;;;;;;-143.84;92.25;43815.41;5096293;28;20436;-79
2023/01/05 04:05:20;;;;;;;56.87;29.67;;;;;;;-143.84;92.15;43796.34;5095364;28;20464;-79
2023/01/05 04:07:49;;;;;;;56.60;30.60;;;;;;;-143.84;92.60;43826.81;5095006;28;20489;-79
2023/01/05 04:10:16;;;;;;;51.97;30.43;;;;;;;-143.84;92.12;43813.50;5095260;28;20536;-79
2023/01/05 04:12:45;;;;;;;57.40;31.50;;;;;;;-143.84;92.23;43819.19;5095399;28;20901;-79
2023/01/05 04:15:12;;;;;;;49.77;30.10;;;;;;;-143.84;91.65;43834.44;5094595;28;21197;-79
2023/01/05 04:17:39;;;;;;;43.87;25.67;;;;;;;-143.84;92.33;43826.81;5094562;28;20424;-79
2023/01/05 04:20:07;;;;;;;40.27;24.73;;;;;;;-143.84;91.50;43821.09;5094898;28;20871;-79
2023/01/05 04:22:34;;;;;;;43.20;26.00;;;;;;;-143.84;91.40;43798.25;5093886;28;20485;-79
2023/01/05 04:25:03;;;;;;;41.83;25.17;;;;;;;-143.84;91.36;43798.25;5092672;28;20528;-78
2023/01/05 04:27:30;;;;;;;44.10;24.97;;;;;;;-143.84;91.58;43849.66;5094521;28;20444;-79
2023/01/05 04:29:57;;;;;;;43.10;25.60;;;;;;;-143.84;91.39;43826.81;5094995;28;20443;-79
2023/01/05 04:32:24;;;;;;;46.33;27.00;;;;;;;-143.84;91.73;43821.09;5095514;28;20444;-78
2023/01/05 04:34:51;;;;;;;52.10;28.40;;;;;;;-143.84;90.96;43815.41;5095566;28;20497;-79
2023/01/05 04:37:19;;;;;;;51.23;27.13;;;;;;;-143.84;91.46;43823.00;5094947;28;20436;-79
2023/01/05 04:39:46;;;;;;;46.20;26.70;;;;;;;-143.84;92.04;43836.34;5095897;28;20425;-79
2023/01/05 04:42:15;;;;;;;53.13;27.83;;;;;;;-143.84;92.12;43800.16;5095002;28;20514;-79
2023/01/05 04:44:42;;;;;;;53.53;31.97;;;;;;;-143.84;92.46;43796.34;5096258;28;20440;-79
2023/01/05 04:47:09;;;;;;;70.50;41.40;;;;;;;-143.84;91.84;43823.00;5096005;28;20424;-79
2023/01/05 04:49:36;;;;;;;70.80;41.57;;;;;;;-143.84;92.69;43830.63;5094634;28;20439;-79
2023/01/05 04:52:03;;;;;;;67.87;43.63;;;;;;;-143.84;93.13;43847.75;5094798;28;20432;-79
2023/01/05 04:54:30;;;;;;;77.27;41.40;;;;;;;-143.84;92.68;43866.78;5094463;28;20440;-79
2023/01/05 04:56:58;;;;;;;78.20;43.20;;;;;;;-143.84;92.65;43857.28;5094782;28;20433;-79
2023/01/05 04:59:26;;;;;;;80.57;39.10;;;;;;;-143.84;93.14;43807.78;5094230;28;20428;-79
2023/01/05 05:01:53;;;;;;;64.83;38.53;;;;;;;-143.84;93.08;43845.84;5094070;28;20513;-79
2023/01/05 05:04:20;;;;;;;62.47;36.60;;;;;;;-143.84;92.75;43840.13;5093998;28;20447;-77
2023/01/05 05:06:48;;;;;;;65.67;37.03;;;;;;;-143.84;92.98;43857.28;5094012;28;20468;-81
2023/01/05 05:09:15;;;;;;;71.50;38.27;;;;;;;-143.84;92.64;43853.47;5094218;28;20420;-77
2023/01/05 05:11:42;;;;;;;65.93;37.13;;;;;;;-143.84;92.83;43842.03;5093845;28;20487;-77
2023/01/05 05:14:09;;;;;;;58.80;36.50;;;;;;;-143.84;92.31;43849.66;5093703;28;20448;-78
2023/01/05 05:16:37;;;;;;;61.13;33.40;;;;;;;-143.84;92.38;43845.84;5094193;28;20424;-78
2023/01/05 05:19:05;;;;;;;64.03;33.27;;;;;;;-143.84;92.12;43834.44;5094050;28;20428;-76
2023/01/05 05:21:32;;;;;;;57.50;31.97;;;;;;;-143.84;92.12;43840.13;5093548;28;20437;-76
2023/01/05 05:23:59;;;;;;;55.57;31.33;;;;;;;-143.84;92.03;43830.63;5093708;28;20428;-76
2023/01/05 05:26:26;;;;;;;56.70;31.20;;;;;;;-143.84;91.76;43824.91;5093896;28;20534;-80
2023/01/05 05:28:53;;;;;;;52.67;32.07;;;;;;;-143.84;91.69;43805.88;5093163;28;20440;-80
2023/01/05 05:31:20;;;;;;;51.40;30.50;;;;;;;-143.84;92.08;43845.84;5093528;28;20447;-80
2023/01/05 05:33:49;;;;;;;56.23;31.17;;;;;;;-143.84;91.67;43792.56;5093763;28;20446;-80
2023/01/05 05:36:17;;;;;;;47.13;30.20;;;;;;;-143.84;91.49;43819.19;5093429;28;20434;-80
2023/01/05 05:38:44;;;;;;;52.73;30.10;;;;;;;-143.84;91.90;43809.69;5093598;28;20463;-80
2023/01/05 05:41:11;;;;;;;54.67;28.87;;;;;;;-143.84;91.55;43809.69;5093910;28;20852;-79
2023/01/05 05:43:38;;;;;;;65.77;30.30;;;;;;;-143.84;91.82;43834.44;5093400;28;20787;-81
2023/01/05 05:46:05;;;;;;;54.53;29.60;;;;;;;-143.84;91.36;43874.41;5093373;28;20528;-81
2023/01/05 05:48:32;;;;;;;54.07;28.90;;;;;;;-143.84;91.64;43832.53;5093156;28;20513;-81
2023/01/05 05:51:01;;;;;;;53.90;29.27;;;;;;;-143.84;91.63;43815.41;5093565;28;20444;-83
2023/01/05 05:53:28;;;;;;;63.00;30.93;;;;;;;-143.84;91.84;43847.75;5092782;28;20428;-84
2023/01/05 05:55:55;;;;;;;50.70;29.17;;;;;;;-143.84;91.35;43832.53;5093078;28;20489;-82
2023/01/05 05:58:22;;;;;;;55.87;32.70;;;;;;;-143.84;91.15;43819.19;5093201;28;20445;-81
2023/01/05 06:00:50;;;;;;;60.73;30.77;;;;;;;-143.84;91.46;43811.59;5093123;28;20489;-81
2023/01/05 06:03:17;;;;;;;66.83;32.10;;;;;;;-143.84;91.40;43819.19;5093069;28;20428;-81
2023/01/05 06:05:44;;;;;;;62.20;31.70;;;;;;;-143.84;91.38;43811.59;5092810;28;20480;-81
2023/01/05 06:08:13;;;;;;;62.33;30.90;;;;;;;-143.84;91.32;43834.44;5093272;28;20432;-81
2023/01/05 06:10:40;;;;;;;52.93;30.50;;;;;;;-143.84;91.62;43832.53;5092774;28;20506;-81
2023/01/05 06:13:07;;;;;;;62.77;32.10;;;;;;;-143.84;92.06;43830.63;5093064;28;20444;-81
2023/01/05 06:15:35;;;;;;;49.93;29.63;;;;;;;-143.84;91.60;43826.81;5093150;28;20435;-81
2023/01/05 06:18:02;;;;;;;47.37;28.43;;;;;;;-143.84;91.95;43834.44;5092687;28;20446;-81
2023/01/05 06:20:30;;;;;;;52.90;30.50;;;;;;;-143.84;91.94;43828.72;5092631;28;20436;-81
2023/01/05 06:22:57;;;;;;;50.80;29.57;;;;;;;-143.84;91.66;43823.00;5092872;28;20516;-81
2023/01/05 06:25:25;;;;;;;48.90;29.07;;;;;;;-143.84;91.93;43828.72;5092516;28;20522;-81
2023/01/05 06:27:52;;;;;;;50.40;28.93;;;;;;;-143.84;91.92;43845.84;5092819;28;20424;-81
2023/01/05 06:30:20;;;;;;;64.60;31.00;;;;;;;-143.84;91.47;43834.44;5092566;28;20439;-81
2023/01/05 06:32:47;;;;;;;53.97;31.90;;;;;;;-143.84;92.10;43819.19;5092437;28;20500;-81
2023/01/05 06:35:14;;;;;;;60.20;32.50;;;;;;;-143.84;91.61;43792.56;5092261;28;20433;-81
2023/01/05 06:37:41;;;;;;;51.73;29.03;;;;;;;-143.84;91.40;43845.84;5092070;28;20443;-81
2023/01/05 06:40:10;;;;;;;60.70;33.70;;;;;;;-143.84;91.55;43823.00;5091523;28;20428;-81
2023/01/05 06:42:40;;;;;;;57.77;33.17;;;;;;;-143.84;91.50;43798.25;5090749;28;20859;-81
2023/01/05 06:45:10;;;;;;;53.10;32.03;;;;;;;-143.84;91.46;43813.50;5092031;28;20444;-81
2023/01/05 06:47:37;;;;;;;54.23;31.60;;;;;;;-143.84;91.27;43802.06;5092588;28;20437;-81
2023/01/05 06:50:04;;;;;;;49.73;31.37;;;;;;;-143.84;90.67;43853.47;5092452;28;20511;-80
2023/01/05 06:52:35;;;;;;;52.63;30.17;;;;;;;-143.84;91.11;43817.31;5092475;28;20791;-80
2023/01/05 06:55:03;;;;;;;70.80;31.73;;;;;;;-143.84;91.23;43851.56;5092495;28;20439;-81
2023/01/05 06:57:30;;;;;;;50.10;29.23;;;;;;;-143.84;90.49;43832.53;5092409;28;20781;-80
2023/01/05 06:59:58;;;;;;;45.27;28.30;;;;;;;-143.84;89.58;43902.97;5092410;28;20529;-81
2023/01/05 07:02:26;;;;;;;50.63;30.43;;;;;;;-143.84;89.50;43883.91;5092161;28;20442;-82
2023/01/05 07:04:53;;;;;;;44.37;28.60;;;;;;;-143.84;88.96;43948.63;5092052;28;20903;-80
2023/01/05 07:07:20;;;;;;;47.57;30.03;;;;;;;-143.84;88.48;44034.31;5095722;28;20892;-80
2023/01/05 07:09:48;;;;;;;42.90;27.53;;;;;;;-143.84;87.63;44116.16;5095891;28;20455;-81
2023/01/05 07:12:16;;;;;;;44.47;27.60;;;;;;;-143.84;87.43;44171.38;5096249;28;20892;-80
2023/01/05 07:14:43;;;;;;;45.10;27.23;;;;;;;-143.84;86.96;44331.28;5096206;28;20452;-79
2023/01/05 07:17:12;;;;;;;44.23;25.30;;;;;;;-143.84;86.56;44420.75;5095843;28;20524;-79
2023/01/05 07:19:40;;;;;;;40.17;26.70;;;;;;;-143.84;85.99;44483.56;5096142;28;20498;-80
2023/01/05 07:22:07;;;;;;;42.43;25.40;;;;;;;-143.84;85.48;44590.19;5095994;28;20430;-80
2023/01/05 07:24:34;;;;;;;36.50;24.50;;;;;;;-143.84;84.49;44738.69;5096337;28;20492;-80
2023/01/05 07:27:02;;;;;;;48.83;24.93;;;;;;;-143.84;83.71;44845.31;5096202;28;20466;-80
2023/01/05 07:29:29;;;;;;;43.63;27.17;;;;;;;-143.84;83.55;44879.59;5095959;28;20902;-79
2023/01/05 07:31:57;;;;;;;45.20;27.00;;;;;;;-143.84;83.09;44892.94;5095102;28;20447;-78
2023/01/05 07:34:25;;;;;;;40.27;26.70;;;;;;;-143.84;82.59;44900.53;5095650;28;21144;-79
2023/01/05 07:36:52;;;;;;;47.57;26.57;;;;;;;-143.84;82.35;44911.97;5094810;28;20508;-79
2023/01/05 07:39:19;;;;;;;45.63;26.80;;;;;;;-143.84;81.97;44965.28;5094451;28;20451;-79
2023/01/05 07:41:47;;;;;;;46.00;26.60;;;;;;;-143.84;81.67;44980.53;5096111;28;20484;-79
2023/01/05 07:44:14;;;;;;;47.63;26.23;;;;;;;-143.84;81.14;44978.63;5095560;28;20500;-79
2023/01/05 07:46:41;;;;;;;38.30;24.10;;;;;;;-143.84;80.38;45022.41;5095699;28;20460;-79
2023/01/05 07:49:08;;;;;;;38.83;24.10;;;;;;;-143.84;80.06;45033.84;5095665;28;20482;-79
2023/01/05 07:51:37;;;;;;;43.27;22.70;;;;;;;-143.84;79.45;45054.78;5094809;28;20436;-79
2023/01/05 07:54:04;;;;;;;35.17;23.50;;;;;;;-143.84;78.50;45087.16;5094899;28;20448;-79
2023/01/05 07:56:31;;;;;;;37.10;23.00;;;;;;;-143.84;77.73;45108.09;5095232;28;20443;-79
2023/01/05 07:58:59;;;;;;;46.00;23.57;;;;;;;-143.84;77.84;45094.78;5095687;28;20448;-79
2023/01/05 08:01:26;;;;;;;34.13;22.17;;;;;;;-143.84;77.06;45102.38;5095941;28;20436;-79
2023/01/05 08:03:54;;;;;;;37.03;22.33;;;;;;;-143.84;76.92;45110.00;5095689;28;20439;-79
2023/01/05 08:06:21;;;;;;;36.10;20.40;;;;;;;-143.84;75.75;45094.78;5095153;28;20469;-79
2023/01/05 08:08:50;;;;;;;33.20;20.90;;;;;;;-143.84;75.27;45104.28;5095540;28;20485;-79
2023/01/05 08:11:19;;;;;;;35.07;20.97;;;;;;;-143.84;74.74;45098.56;5095331;28;20895;-79
2023/01/05 08:14:02;;;;;;;34.17;21.23;;;;;;;-143.84;74.16;45113.81;5095457;28;20444;-80
2023/01/05 08:16:31;;;;;;;31.30;20.97;;;;;;;-143.84;72.58;45159.50;5094934;28;20444;-79
2023/01/05 08:18:59;;;;;;;39.37;22.20;;;;;;;-143.84;72.76;45115.72;5095515;28;20420;-79
2023/01/05 08:21:26;;;;;;;33.83;20.77;;;;;;;-143.84;72.53;45138.56;5095566;28;20433;-79
2023/01/05 08:23:58;;;;;;;31.43;21.87;;;;;;;-143.84;72.34;45113.81;5095349;28;20924;-79
2023/01/05 08:26:25;;;;;;;34.60;20.80;;;;;;;-143.84;72.22;45108.09;5095134;28;20518;-80
2023/01/05 08:28:53;;;;;;;33.47;21.47;;;;;;;-143.84;72.25;45115.72;5094478;28;20935;-79
2023/01/05 08:31:23;;;;;;;35.90;23.70;;;;;;;-143.84;71.62;45129.03;5094596;28;20460;-80
2023/01/05 08:33:58;;;;;;;39.63;21.53;;;;;;;-143.84;71.07;45129.03;5094633;28;20438;-80
2023/01/05 08:36:26;;;;;;;34.67;21.73;;;;;;;-143.84;71.01;45117.63;5094286;28;20442;-79
2023/01/05 08:38:55;;;;;;;37.77;21.67;;;;;;;-143.84;70.63;45115.72;5094171;28;20443;-79
2023/01/05 08:41:24;;;;;;;43.80;24.03;;;;;;;-143.84;70.32;45110.00;5094864;28;20439;-79
2023/01/05 08:43:53;;;;;;;36.00;21.30;;;;;;;-143.84;69.85;45104.28;5094721;28;20464;-79
2023/01/05 08:46:21;;;;;;;36.67;22.43;;;;;;;-143.84;69.52;45134.75;5095197;28;20470;-79
2023/01/05 08:48:49;;;;;;;32.60;21.50;;;;;;;-143.84;69.35;45134.75;5094545;28;20428;-78
2023/01/05 08:51:17;;;;;;;36.53;22.17;;;;;;;-143.84;68.74;45119.53;5094746;28;20856;-79
2023/01/05 08:53:44;;;;;;;26.93;19.10;;;;;;;-143.84;68.33;45106.19;5094512;28;20432;-79
2023/01/05 08:56:13;;;;;;;30.37;20.20;;;;;;;-143.84;68.33;45123.34;5094928;28;20423;-80
2023/01/05 08:58:41;;;;;;;30.73;20.30;;;;;;;-143.84;67.33;45136.66;5094729;28;20466;-80
2023/01/05 09:01:09;;;;;;;39.47;21.00;;;;;;;-143.84;67.39;45142.38;5095124;28;20498;-79
2023/01/05 09:03:36;;;;;;;30.97;20.03;;;;;;;-143.84;66.71;45134.75;5094186;28;20472;-79
2023/01/05 09:06:04;;;;;;;37.93;21.37;;;;;;;-143.84;66.68;45140.47;5093753;28;20528;-79
2023/01/05 09:08:33;;;;;;;28.57;18.07;;;;;;;-143.84;65.89;45106.19;5093005;28;20451;-79
2023/01/05 09:11:07;;;;;;;27.60;16.87;;;;;;;-143.84;65.28;45123.34;5093304;28;20509;-80
2023/01/05 09:13:37;;;;;;;26.00;18.40;;;;;;;-143.84;64.91;45125.22;5093267;28;20447;-79
2023/01/05 09:16:07;;;;;;;28.30;17.83;;;;;;;-143.84;63.04;45125.22;5091617;28;20465;-79
2023/01/05 09:18:34;;;;;;;29.57;19.70;;;;;;;-143.84;62.43;45119.53;5092192;28;20456;-79
2023/01/05 09:21:02;;;;;;;26.27;18.77;;;;;;;-143.84;62.47;45134.75;5093517;28;20509;-79
2023/01/05 09:23:29;;;;;;;33.43;17.83;;;;;;;-143.84;62.53;45132.84;5093453;28;20952;-79
2023/01/05 09:25:56;;;;;;;32.03;19.40;;;;;;;-143.84;62.13;45130.94;5093673;28;20446;-79
2023/01/05 09:28:23;;;;;;;25.90;18.03;;;;;;;-143.84;61.23;45129.03;5093143;28;20432;-79
2023/01/05 09:30:52;;;;;;;32.73;19.00;;;;;;;-143.84;61.18;45113.81;5093404;28;20440;-76
2023/01/05 09:33:19;;;;;;;25.97;17.90;;;;;;;-143.84;61.74;45132.84;5093810;28;20455;-80
2023/01/05 09:35:53;;;;;;;30.00;19.73;;;;;;;-143.84;61.86;45140.47;5093648;28;21199;-80
2023/01/05 09:38:21;;;;;;;34.17;18.33;;;;;;;-143.84;61.18;45130.94;5093542;28;20494;-80
2023/01/05 09:40:51;;;;;;;28.53;18.57;;;;;;;-143.84;60.95;45098.56;5093775;28;20489;-80
2023/01/05 09:43:26;;;;;;;45.47;19.83;;;;;;;-143.84;59.63;45110.00;5093093;28;20472;-80
2023/01/05 09:45:56;;;;;;;26.13;18.57;;;;;;;-143.84;59.90;45125.22;5092657;28;20490;-80
2023/01/05 09:48:26;;;;;;;31.83;18.40;;;;;;;-143.84;60.02;45130.94;5091392;28;20486;-77
2023/01/05 09:50:53;;;;;;;28.77;19.10;;;;;;;-143.84;59.53;45127.13;5093076;28;20970;-77
2023/01/05 09:53:28;;;;;;;25.83;17.63;;;;;;;-143.84;58.89;45115.72;5093458;28;20445;-80
2023/01/05 09:55:56;;;;;;;29.73;20.20;;;;;;;-143.84;58.31;45140.47;5093351;28;20434;-81
2023/01/05 09:58:27;;;;;;;30.87;20.10;;;;;;;-143.84;58.33;45098.56;5093354;28;20447;-79
2023/01/05 10:01:07;;;;;;;29.80;19.30;;;;;;;-143.84;58.34;45098.56;5093322;28;20453;-78
2023/01/05 10:03:38;;;;;;;27.47;18.70;;;;;;;-143.84;56.80;45092.88;5093257;28;20526;-80
2023/01/05 10:06:07;;;;;;;25.83;17.07;;;;;;;-143.84;55.77;45096.66;5093146;28;20859;-79
2023/01/05 10:08:39;;;;;;;25.20;16.73;;;;;;;-143.84;55.04;45106.19;5093058;28;20501;-80
2023/01/05 10:14:02;;;;;;;23.93;16.47;;;;;;;-143.84;54.50;45129.03;5093165;28;20414;-82
2023/01/05 10:16:32;;;;;;;23.00;15.27;;;;;;;-143.84;55.11;45119.53;5094278;28;20424;-81
2023/01/05 10:19:05;;;;;;;22.00;15.83;;;;;;;-143.84;54.07;45119.53;5097984;28;20447;-79
2023/01/05 10:21:42;;;;;;;25.57;15.27;;;;;;;-143.84;53.96;45117.63;5094759;28;20443;-83
2023/01/05 10:24:22;;;;;;;26.00;17.27;;;;;;;-143.84;54.14;45100.47;5093841;28;20424;-82
2023/01/05 10:26:57;;;;;;;30.63;15.83;;;;;;;-143.84;54.38;45121.44;5093794;28;20482;-83
2023/01/05 10:29:32;;;;;;;32.63;15.93;;;;;;;-143.84;53.29;45111.91;5093499;28;21177;-82
2023/01/05 10:32:11;;;;;;;21.53;15.53;;;;;;;-143.84;52.95;45121.44;5092428;28;20439;-82
2023/01/05 10:34:54;;;;;;;24.47;16.10;;;;;;;-143.84;53.44;45096.66;5092563;28;21033;-77
2023/01/05 10:37:50;;;;;;;25.43;15.67;;;;;;;-143.84;52.55;45106.19;5092342;28;20436;-80
2023/01/05 10:40:27;;;;;;;26.13;16.63;;;;;;;-143.84;52.72;45113.81;5090733;28;20510;-81
2023/01/05 10:43:10;;;;;;;24.93;15.97;;;;;;;-143.84;51.82;45110.00;5092179;28;20428;-81
2023/01/05 10:45:38;;;;;;;25.83;15.70;;;;;;;-143.84;52.40;45104.28;5092272;28;20463;-81
2023/01/05 10:48:13;;;;;;;22.80;15.00;;;;;;;-143.84;51.98;45130.94;5092435;28;20465;-81
2023/01/05 10:50:42;;;;;;;24.73;15.20;;;;;;;-143.84;52.76;45115.72;5092317;28;20432;-81
2023/01/05 10:53:12;;;;;;;22.60;14.40;;;;;;;-143.84;52.53;45106.19;5092794;28;20491;-81
2023/01/05 10:55:47;;;;;;;21.30;15.83;;;;;;;-143.84;52.56;45079.53;5092745;28;20858;-81
2023/01/05 10:58:25;;;;;;;28.17;16.63;;;;;;;-143.84;51.56;45098.56;5092292;28;20434;-81
2023/01/05 11:00:56;;;;;;;24.63;15.87;;;;;;;-143.84;51.89;45119.53;5092331;28;20885;-81
2023/01/05 11:03:33;;;;;;;28.70;16.90;;;;;;;-143.84;51.25;45106.19;5092282;28;20424;-81
2023/01/05 11:06:00;;;;;;;22.53;15.60;;;;;;;-143.84;49.99;45117.63;5092001;28;21122;-81
2023/01/05 11:08:29;;;;;;;25.80;16.20;;;;;;;-143.84;49.65;45115.72;5092190;28;20473;-81
2023/01/05 11:10:58;;;;;;;17.50;13.23;;;;;;;-143.84;48.62;45102.38;5092066;28;20483;-81
2023/01/05 11:13:32;;;;;;;17.63;14.60;;;;;;;-143.84;49.08;45110.00;5092966;28;20486;-82
2023/01/05 11:16:06;;;;;;;26.33;14.70;;;;;;;-143.84;48.36;45117.63;5092740;28;20425;-79
2023/01/05 11:18:47;;;;;;;61.50;34.73;;;;;;;-143.84;49.39;45132.84;5092332;28;20437;-80
2023/01/05 11:21:16;;;;;;;45.53;18.63;;;;;;;-143.84;50.19;45102.38;5092031;28;20971;-77
2023/01/05 11:23:45;;;;;;;27.30;16.00;;;;;;;-143.84;50.28;45134.75;5091936;28;20437;-78
2023/01/05 11:26:30;;;;;;;21.80;15.90;;;;;;;-143.84;51.07;45127.13;5091465;28;20898;-78
2023/01/05 11:29:11;;;;;;;28.70;16.50;;;;;;;-143.84;51.15;45089.06;5088835;28;20455;-78
2023/01/05 11:31:43;;;;;;;22.50;14.93;;;;;;;-143.84;51.78;45102.38;5076312;28;20476;-78
2023/01/05 11:34:28;;;;;;;26.50;16.50;;;;;;;-143.84;52.67;45096.66;5091606;28;20436;-78
2023/01/05 11:36:57;;;;;;;26.30;15.57;;;;;;;-143.84;51.91;45110.00;5091595;28;20434;-78
2023/01/05 11:39:30;;;;;;;20.30;14.40;;;;;;;-143.84;52.75;45121.44;5091752;28;20482;-78
2023/01/05 11:42:17;;;;;;;22.33;15.63;;;;;;;-143.84;52.12;45121.44;5091602;28;20912;-78
2023/01/05 11:44:48;;;;;;;22.80;16.17;;;;;;;-143.84;53.12;45115.72;5091073;28;20499;-78
2023/01/05 11:47:32;;;;;;;29.27;17.53;;;;;;;-143.84;52.81;45111.91;5090943;28;20535;-78
2023/01/05 11:50:14;;;;;;;22.37;15.53;;;;;;;-143.84;53.98;45129.03;5089978;28;20500;-78